Time;durP1;ratioP1;P1;durP2;ratioP2;P2;SDS_P1;SDS_P2;PMS_P1;PMS_P2;Temp;Humidity;BMP_temperature;BMP_pressure;BME280_temperature;BME280_humidity;BME280_pressure;Samples;Min_cycle;Max_cycle;Signal;HPM_P1;HPM_P2
2023/04/17 05:49:18;;;;;;;24.02;15.35;;;;;;;16.84;45.84;101673.81;4998990;28;20128;-62
2023/04/17 05:51:45;;;;;;;19.10;15.07;;;;;;;14.36;51.16;101670.88;5005415;28;20711;-62
2023/04/17 05:54:13;;;;;;;26.42;17.40;;;;;;;12.46;55.50;101674.09;4990460;28;20081;-62
2023/04/17 05:56:40;;;;;;;22.52;16.67;;;;;;;11.01;58.87;101671.22;4985975;28;20062;-62
2023/04/17 05:59:07;;;;;;;26.08;17.38;;;;;;;9.95;62.05;101665.09;5000693;28;20361;-61
2023/04/17 06:01:35;;;;;;;24.27;18.65;;;;;;;9.25;65.11;101663.38;5014942;28;20049;-62
2023/04/17 06:04:02;;;;;;;24.10;19.33;;;;;;;8.79;67.13;101667.66;5008093;28;20073;-62
2023/04/17 06:06:30;;;;;;;28.25;20.25;;;;;;;8.41;69.70;101671.56;5005982;28;20753;-60
2023/04/17 06:08:58;;;;;;;24.63;20.05;;;;;;;8.12;70.54;101670.72;5005338;28;20456;-62
2023/04/17 06:11:25;;;;;;;25.48;20.23;;;;;;;7.93;72.71;101676.63;4999889;28;20077;-61
2023/04/17 06:13:53;;;;;;;26.13;20.90;;;;;;;7.68;73.91;101679.97;5021871;28;20632;-61
2023/04/17 06:16:20;;;;;;;29.38;23.40;;;;;;;7.57;74.23;101676.81;5016359;28;20081;-60
2023/04/17 06:18:48;;;;;;;28.25;20.13;;;;;;;7.49;75.29;101674.44;4999037;28;20132;-61
2023/04/17 06:21:16;;;;;;;34.80;23.60;;;;;;;7.44;77.05;101681.56;5010920;28;20062;-61
2023/04/17 06:23:44;;;;;;;34.83;21.77;;;;;;;7.40;78.64;101689.56;5007210;28;20535;-62
2023/04/17 06:26:12;;;;;;;28.67;23.23;;;;;;;7.40;79.21;101685.16;5020996;28;20052;-62
2023/04/17 06:28:39;;;;;;;31.70;25.45;;;;;;;7.32;79.82;101684.53;5012142;28;20496;-62
2023/04/17 06:31:06;;;;;;;30.55;23.83;;;;;;;7.32;80.28;101690.63;5003776;28;20538;-61
2023/04/17 06:33:33;;;;;;;34.70;24.27;;;;;;;7.33;80.62;101689.72;5003871;28;20064;-60
2023/04/17 06:36:01;;;;;;;38.05;24.60;;;;;;;7.39;82.24;101698.31;5016386;28;20063;-61
2023/04/17 06:38:29;;;;;;;27.10;22.60;;;;;;;7.32;82.07;101692.38;5022473;28;20056;-61
2023/04/17 06:40:56;;;;;;;31.40;24.23;;;;;;;7.25;83.29;101701.31;4998609;28;20116;-61
2023/04/17 06:43:23;;;;;;;29.52;22.73;;;;;;;7.28;83.72;101690.75;4996064;28;20056;-61
2023/04/17 06:45:50;;;;;;;31.65;24.50;;;;;;;7.39;84.35;101696.56;5015343;28;20049;-61
2023/04/17 06:48:17;;;;;;;31.67;23.60;;;;;;;7.47;84.61;101702.41;5008909;28;20076;-62
2023/04/17 06:50:45;;;;;;;33.08;23.63;;;;;;;7.47;84.87;101696.31;5017652;28;20089;-61
2023/04/17 06:53:13;;;;;;;26.02;21.92;;;;;;;7.42;84.59;101700.84;5002284;28;20579;-61
2023/04/17 06:55:40;;;;;;;30.80;23.15;;;;;;;7.45;85.58;101709.47;5013557;28;20386;-62
2023/04/17 06:58:07;;;;;;;26.42;22.08;;;;;;;7.49;85.53;101707.63;5001881;28;20055;-61
2023/04/17 07:00:35;;;;;;;28.42;21.65;;;;;;;7.58;85.46;101715.22;4995649;28;20051;-61
2023/04/17 07:03:02;;;;;;;28.05;21.88;;;;;;;7.59;85.84;101711.69;4995727;28;20046;-62
2023/04/17 07:05:30;;;;;;;29.50;21.08;;;;;;;7.66;86.11;101712.38;4987339;28;20061;-63
2023/04/17 07:07:57;;;;;;;31.85;22.08;;;;;;;7.78;86.07;101714.63;4982899;28;20138;-62
2023/04/17 07:10:24;;;;;;;33.65;22.92;;;;;;;7.86;85.49;101721.34;4980376;28;20074;-62
2023/04/17 07:12:51;;;;;;;30.92;22.17;;;;;;;7.91;85.36;101726.47;5002710;28;20054;-63
2023/04/17 07:15:19;;;;;;;27.02;20.55;;;;;;;7.93;85.76;101727.28;4990362;28;20058;-63
2023/04/17 07:17:46;;;;;;;30.30;22.85;;;;;;;7.97;85.48;101733.28;4989957;28;20478;-62
2023/04/17 07:20:14;;;;;;;29.38;21.38;;;;;;;8.02;85.51;101732.25;5002017;28;20058;-61
2023/04/17 07:22:42;;;;;;;31.40;21.02;;;;;;;7.98;85.14;101733.25;5005358;28;20507;-61
2023/04/17 07:25:09;;;;;;;33.15;22.13;;;;;;;7.98;85.80;101732.41;4986063;28;20628;-61
2023/04/17 07:27:37;;;;;;;31.63;24.38;;;;;;;8.01;85.77;101738.38;4991173;28;20137;-62
2023/04/17 07:30:06;;;;;;;31.15;22.70;;;;;;;8.00;85.85;101736.66;5000416;28;20054;-62
2023/04/17 07:32:34;;;;;;;29.95;23.42;;;;;;;8.04;85.37;101746.16;4997537;28;20042;-62
2023/04/17 07:35:03;;;;;;;29.20;23.58;;;;;;;8.07;85.56;101753.09;4991530;28;20468;-62
2023/04/17 07:37:31;;;;;;;31.55;22.73;;;;;;;8.02;86.17;101753.22;5005472;28;20076;-62
2023/04/17 07:39:59;;;;;;;31.20;23.55;;;;;;;8.09;86.47;101748.66;4992515;28;20130;-62
2023/04/17 07:42:27;;;;;;;31.63;23.67;;;;;;;8.15;86.48;101755.47;4984849;28;20115;-61
2023/04/17 07:44:54;;;;;;;26.63;21.05;;;;;;;8.21;86.04;101750.91;5004957;28;20366;-62
2023/04/17 07:47:22;;;;;;;29.73;21.33;;;;;;;8.29;85.26;101756.78;4984072;28;20075;-62
2023/04/17 07:49:50;;;;;;;29.48;22.30;;;;;;;8.38;85.58;101760.06;4990456;28;20050;-63
2023/04/17 07:52:17;;;;;;;30.42;22.60;;;;;;;8.44;85.37;101763.31;4997010;28;20575;-63
2023/04/17 07:54:44;;;;;;;30.60;21.00;;;;;;;8.56;85.69;101765.56;4991057;28;20193;-62
2023/04/17 07:57:13;;;;;;;24.52;19.05;;;;;;;8.61;84.84;101762.78;4974250;28;20051;-62
2023/04/17 07:59:41;;;;;;;24.05;18.20;;;;;;;8.63;84.37;101760.97;5005052;28;20077;-63
2023/04/17 08:02:08;;;;;;;31.58;22.42;;;;;;;8.61;84.14;101768.91;4997162;28;20058;-62
2023/04/17 08:04:38;;;;;;;31.67;20.98;;;;;;;8.64;83.76;101767.91;4998044;28;20052;-63
2023/04/17 08:07:09;;;;;;;30.92;21.83;;;;;;;8.63;83.90;101772.31;4985448;28;20205;-62
2023/04/17 08:09:36;;;;;;;29.35;22.92;;;;;;;8.61;84.08;101770.66;5001890;28;20583;-62
2023/04/17 08:12:04;;;;;;;28.67;23.98;;;;;;;8.54;83.89;101774.38;4988862;28;20077;-63
2023/04/17 08:14:32;;;;;;;33.40;22.73;;;;;;;8.59;84.35;101780.34;4990956;28;20050;-63
2023/04/17 08:16:59;;;;;;;31.08;22.60;;;;;;;8.70;83.90;101777.38;4987944;28;20050;-62
2023/04/17 08:19:28;;;;;;;31.50;23.58;;;;;;;8.80;83.68;101786.66;5005513;28;20055;-61
2023/04/17 08:22:03;;;;;;;35.15;24.42;;;;;;;8.86;83.44;101789.94;5003783;28;20054;-61
2023/04/17 08:24:30;;;;;;;28.17;21.63;;;;;;;8.85;83.01;101792.63;4989894;28;20397;-61
2023/04/17 08:26:58;;;;;;;28.38;21.15;;;;;;;8.93;83.52;101792.38;4986724;28;20126;-61
2023/04/17 08:29:25;;;;;;;39.47;21.45;;;;;;;8.96;82.52;101793.13;5004931;28;20042;-61
2023/04/17 08:31:52;;;;;;;26.83;21.45;;;;;;;9.01;82.68;101790.34;4984070;28;20132;-62
2023/04/17 08:34:40;;;;;;;29.00;21.65;;;;;;;9.05;83.21;101791.94;4987354;28;20475;-61
2023/04/17 08:37:07;;;;;;;28.75;21.92;;;;;;;9.17;82.13;101801.19;5007206;28;20050;-60
2023/04/17 08:39:34;;;;;;;26.42;20.92;;;;;;;9.26;82.18;101798.25;4993891;28;20038;-60
2023/04/17 08:42:09;;;;;;;30.33;22.75;;;;;;;9.35;81.86;101809.28;4991928;28;20058;-61
2023/04/17 08:44:42;;;;;;;27.42;22.13;;;;;;;9.55;81.65;101792.84;4994563;28;20144;-62
2023/04/17 08:47:11;;;;;;;28.23;21.77;;;;;;;9.81;81.16;101798.88;4984703;28;20055;-62
2023/04/17 08:49:42;;;;;;;27.75;20.80;;;;;;;9.98;80.74;101801.75;4991327;28;20110;-61
2023/04/17 08:52:09;;;;;;;25.20;19.70;;;;;;;10.23;80.41;101796.44;4992394;28;20060;-61
2023/04/17 08:54:37;;;;;;;24.67;18.55;;;;;;;10.53;79.80;101796.16;4998350;28;20453;-62
2023/04/17 08:57:05;;;;;;;24.35;18.95;;;;;;;10.68;78.82;101794.69;4992467;28;20054;-62
2023/04/17 08:59:32;;;;;;;27.73;17.83;;;;;;;10.67;78.30;101799.06;4998455;28;20046;-61
2023/04/17 09:02:03;;;;;;;22.65;16.77;;;;;;;10.55;77.98;101807.50;4990369;28;20565;-61
2023/04/17 09:04:38;;;;;;;25.83;19.48;;;;;;;10.44;77.82;101807.06;5005467;28;20144;-60
2023/04/17 09:07:07;;;;;;;29.92;17.90;;;;;;;10.39;77.67;101802.81;5002449;28;20145;-62
2023/04/17 09:09:52;;;;;;;24.73;19.63;;;;;;;10.44;78.18;101801.78;5008785;28;20548;-62
2023/04/17 09:12:20;;;;;;;27.67;18.38;;;;;;;10.54;77.43;101805.78;4985533;28;20414;-62
2023/04/17 09:14:48;;;;;;;22.17;17.55;;;;;;;10.53;76.58;101807.53;4989873;28;20141;-62
2023/04/17 09:17:17;;;;;;;24.48;18.70;;;;;;;10.56;76.46;101812.69;4990457;28;20507;-63
2023/04/17 09:20:11;;;;;;;25.38;18.13;;;;;;;10.48;76.63;101812.13;4988165;28;20043;-62
2023/04/17 09:22:39;;;;;;;25.33;19.45;;;;;;;10.40;76.62;101803.66;4994555;28;20397;-61
2023/04/17 09:25:17;;;;;;;22.00;17.50;;;;;;;10.29;76.57;101798.84;4986943;28;20096;-61
2023/04/17 09:27:45;;;;;;;22.05;15.65;;;;;;;10.31;76.93;101804.03;4980314;28;20054;-61
2023/04/17 09:30:12;;;;;;;24.27;19.20;;;;;;;10.37;76.85;101802.03;4991265;28;20130;-62
2023/04/17 09:32:40;;;;;;;23.38;18.23;;;;;;;10.48;76.92;101809.50;4967020;28;20129;-61
2023/04/17 09:35:08;;;;;;;26.48;18.27;;;;;;;10.78;77.10;101811.84;4977280;28;20073;-61
2023/04/17 09:37:52;;;;;;;23.10;16.33;;;;;;;11.16;76.43;101805.81;4979544;28;20125;-63
2023/04/17 09:40:21;;;;;;;19.27;13.82;;;;;;;11.61;75.11;101806.50;4983903;28;20511;-64
2023/04/17 09:43:02;;;;;;;14.68;13.02;;;;;;;12.12;73.17;101800.69;4982293;28;20065;-62
2023/04/17 09:45:39;;;;;;;15.48;11.00;;;;;;;12.56;71.02;101805.66;4990325;28;20046;-63
2023/04/17 09:48:12;;;;;;;17.63;13.25;;;;;;;12.81;69.13;101810.59;4979842;28;20145;-64
2023/04/17 09:50:39;;;;;;;14.48;11.38;;;;;;;12.86;68.07;101813.00;4979253;28;20039;-63
2023/04/17 09:53:07;;;;;;;15.55;12.55;;;;;;;12.77;67.14;101813.47;4991770;28;20137;-62
2023/04/17 09:55:36;;;;;;;18.85;12.65;;;;;;;12.83;66.58;101807.84;4970452;28;20050;-62
2023/04/17 09:58:05;;;;;;;16.63;12.43;;;;;;;13.01;66.90;101814.00;4972818;28;20061;-62
2023/04/17 10:00:32;;;;;;;16.20;11.77;;;;;;;13.18;65.86;101806.94;4989849;28;20053;-61
2023/04/17 10:02:59;;;;;;;15.93;10.20;;;;;;;13.03;66.10;101810.38;4969515;28;20173;-62
2023/04/17 10:05:31;;;;;;;13.80;12.07;;;;;;;13.02;64.46;101806.03;4964221;28;20100;-62
2023/04/17 10:07:58;;;;;;;15.15;12.38;;;;;;;12.86;63.73;101810.34;4990961;28;20174;-62
2023/04/17 10:10:31;;;;;;;27.33;14.88;;;;;;;12.89;64.15;101818.16;4967790;28;20070;-62
2023/04/17 10:13:00;;;;;;;15.55;12.60;;;;;;;13.03;63.67;101809.53;4966630;28;20090;-62
2023/04/17 10:15:28;;;;;;;14.50;11.27;;;;;;;13.06;63.39;101812.88;4972128;28;20769;-61
2023/04/17 10:18:22;;;;;;;18.17;13.27;;;;;;;13.56;63.18;101804.16;4983128;28;20047;-61
2023/04/17 10:20:52;;;;;;;13.88;12.45;;;;;;;13.83;61.45;101807.13;4991411;28;20042;-62
2023/04/17 10:23:30;;;;;;;17.10;13.10;;;;;;;13.82;61.62;101809.84;4963794;28;20059;-61
2023/04/17 10:26:33;;;;;;;15.50;11.23;;;;;;;13.71;60.34;101799.00;4970082;28;20096;-62
2023/04/17 10:29:00;;;;;;;16.17;10.50;;;;;;;13.82;60.22;101804.53;5009444;28;20072;-62
2023/04/17 10:32:06;;;;;;;14.10;10.90;;;;;;;13.92;58.81;101803.13;4981622;28;20107;-62
2023/04/17 10:34:34;;;;;;;15.60;10.85;;;;;;;14.31;58.16;101807.16;4974125;28;20047;-62
2023/04/17 10:37:03;;;;;;;21.42;11.65;;;;;;;14.29;57.71;101806.41;4987186;28;20141;-62
2023/04/17 10:40:00;;;;;;;15.10;10.88;;;;;;;14.32;57.61;101799.16;4970918;28;20165;-60
2023/04/17 10:42:29;;;;;;;15.98;9.40;;;;;;;14.64;57.43;101804.47;4970796;28;21848;-62
2023/04/17 10:44:58;;;;;;;19.48;10.77;;;;;;;14.92;56.47;101798.41;4992809;28;20051;-63
2023/04/17 10:47:33;;;;;;;17.98;10.48;;;;;;;14.97;56.04;101806.94;5022280;28;21035;-61
2023/04/17 10:50:06;;;;;;;12.50;9.90;;;;;;;15.05;55.66;101802.03;4978605;28;20061;-61
2023/04/17 10:52:33;;;;;;;17.40;10.55;;;;;;;15.26;54.50;101801.69;4964441;28;20055;-61
2023/04/17 10:55:05;;;;;;;15.57;10.77;;;;;;;15.49;54.58;101797.66;4974199;28;20043;-59
2023/04/17 10:57:51;;;;;;;15.75;10.98;;;;;;;15.80;53.92;101792.19;4977923;28;20073;-62
2023/04/17 11:00:48;;;;;;;13.77;9.77;;;;;;;16.18;53.96;101789.78;4980985;28;20430;-62
2023/04/17 11:03:16;;;;;;;12.93;9.88;;;;;;;16.22;53.18;101793.13;4968867;28;20550;-59
2023/04/17 11:05:45;;;;;;;12.63;10.55;;;;;;;16.00;52.84;101798.09;4967678;28;20063;-59
2023/04/17 11:08:13;;;;;;;15.98;10.98;;;;;;;15.77;52.70;101802.19;4967584;28;20065;-60
2023/04/17 11:10:41;;;;;;;17.63;12.07;;;;;;;15.63;52.65;101795.88;4969441;28;20050;-60
2023/04/17 11:13:09;;;;;;;14.20;10.35;;;;;;;15.66;52.64;101798.38;4979717;28;20060;-60
2023/04/17 11:15:36;;;;;;;15.57;12.05;;;;;;;15.63;52.66;101793.22;4976990;28;20058;-59
2023/04/17 11:18:03;;;;;;;12.95;10.77;;;;;;;15.83;52.29;101796.47;4976817;28;20180;-59
2023/04/17 11:20:32;;;;;;;16.90;11.43;;;;;;;16.12;52.14;101794.63;4969137;28;20055;-59
2023/04/17 11:23:03;;;;;;;14.65;10.65;;;;;;;16.28;50.19;101798.03;4982394;28;20118;-60
2023/04/17 11:25:32;;;;;;;14.52;9.05;;;;;;;16.27;50.22;101798.13;4975012;28;20411;-58
2023/04/17 11:28:03;;;;;;;14.93;9.63;;;;;;;16.64;50.00;101802.75;4970835;28;20160;-61
2023/04/17 11:30:33;;;;;;;13.23;8.85;;;;;;;16.88;49.38;101805.63;4969384;28;20135;-58
2023/04/17 11:33:05;;;;;;;12.80;9.38;;;;;;;16.96;48.82;101815.75;4974896;28;20054;-59
2023/04/17 11:35:35;;;;;;;16.17;11.18;;;;;;;16.43;48.65;101810.31;4985289;28;20082;-60
2023/04/17 11:38:12;;;;;;;15.07;10.63;;;;;;;16.15;48.98;101808.56;4991987;28;20389;-60
2023/04/17 11:40:44;;;;;;;11.77;9.73;;;;;;;16.11;49.23;101807.06;4976017;28;20051;-61
2023/04/17 11:43:12;;;;;;;11.82;9.60;;;;;;;16.15;49.17;101808.56;4978393;28;20249;-60
2023/04/17 11:45:41;;;;;;;17.30;9.57;;;;;;;16.44;49.34;101808.53;4976661;28;20064;-60
2023/04/17 11:48:10;;;;;;;12.30;9.75;;;;;;;16.61;48.32;101812.72;5008881;28;20064;-61
2023/04/17 11:50:39;;;;;;;14.20;9.77;;;;;;;16.73;48.01;101811.97;4968228;28;20568;-59
2023/04/17 11:53:06;;;;;;;16.73;10.05;;;;;;;17.16;48.11;101825.06;4976784;28;20482;-58
2023/04/17 11:55:34;;;;;;;14.07;10.45;;;;;;;17.56;47.43;101824.97;4968378;28;20138;-60
2023/04/17 11:58:05;;;;;;;12.13;8.75;;;;;;;17.71;47.23;101821.28;4970192;28;20065;-60
2023/04/17 12:00:33;;;;;;;12.95;9.88;;;;;;;17.61;46.44;101818.41;4972530;28;20145;-61
2023/04/17 12:03:01;;;;;;;13.68;10.00;;;;;;;16.90;46.70;101821.50;4975773;28;20077;-61
2023/04/17 12:05:30;;;;;;;13.70;10.25;;;;;;;16.22;47.97;101818.84;4988444;28;20046;-60
2023/04/17 12:08:03;;;;;;;14.32;10.38;;;;;;;15.40;49.05;101825.59;4973394;28;20104;-59
2023/04/17 12:10:40;;;;;;;12.98;10.00;;;;;;;14.91;50.53;101832.03;4973336;28;20061;-59
2023/04/17 12:13:11;;;;;;;12.02;9.88;;;;;;;14.57;51.18;101833.09;4969514;28;20055;-61
2023/04/17 12:15:38;;;;;;;14.23;10.10;;;;;;;14.30;51.88;101831.94;4990423;28;20090;-61
2023/04/17 12:18:07;;;;;;;15.55;10.75;;;;;;;13.98;52.95;101831.06;4984319;28;20787;-60
2023/04/17 12:20:35;;;;;;;13.68;10.60;;;;;;;13.58;53.90;101835.81;4993832;28;20133;-60
2023/04/17 12:23:04;;;;;;;13.50;11.20;;;;;;;13.28;54.40;101835.59;4969810;28;20049;-62
2023/04/17 12:25:32;;;;;;;17.33;11.18;;;;;;;13.01;55.66;101836.00;4970790;28;20076;-61
2023/04/17 12:28:03;;;;;;;15.65;12.75;;;;;;;12.73;57.31;101844.44;4968457;28;20137;-61
2023/04/17 12:30:34;;;;;;;14.80;11.32;;;;;;;12.47;57.09;101835.13;4976134;28;20125;-64
2023/04/17 12:33:02;;;;;;;17.40;12.02;;;;;;;12.26;58.49;101834.38;4976290;28;20062;-60
2023/04/17 12:35:29;;;;;;;17.42;11.25;;;;;;;12.03;58.53;101838.06;4973533;28;20111;-62
2023/04/17 12:37:57;;;;;;;19.23;12.00;;;;;;;11.88;59.05;101839.59;4970394;28;20065;-61
2023/04/17 12:40:24;;;;;;;16.88;11.63;;;;;;;11.85;59.06;101841.56;4980407;28;20482;-61
2023/04/17 12:42:51;;;;;;;19.95;12.90;;;;;;;11.78;59.38;101840.91;4989168;28;20054;-61
2023/04/17 12:45:18;;;;;;;15.20;13.15;;;;;;;11.72;59.05;101845.63;4976324;28;20046;-60
2023/04/17 12:47:46;;;;;;;20.75;11.90;;;;;;;11.59;58.22;101846.16;4984347;28;20068;-61
2023/04/17 12:50:13;;;;;;;16.98;11.50;;;;;;;11.46;58.85;101846.75;4977003;28;20097;-61
2023/04/17 12:52:40;;;;;;;20.02;11.63;;;;;;;11.42;58.79;101846.03;4983508;28;20050;-60
2023/04/17 12:55:08;;;;;;;16.85;12.00;;;;;;;11.46;59.21;101844.13;4977979;28;20050;-62
2023/04/17 12:57:36;;;;;;;16.60;12.15;;;;;;;11.48;59.28;101848.38;4972313;28;20085;-61
2023/04/17 13:00:08;;;;;;;14.70;11.63;;;;;;;11.48;59.06;101843.09;4962217;28;20249;-61
2023/04/17 13:02:35;;;;;;;15.43;11.88;;;;;;;11.47;59.34;101854.59;4974650;28;20058;-61
2023/04/17 13:05:06;;;;;;;15.00;10.95;;;;;;;11.45;59.45;101850.31;4975330;28;20053;-61
2023/04/17 13:07:33;;;;;;;14.13;11.90;;;;;;;11.41;59.57;101850.44;4971418;28;20061;-61
2023/04/17 13:10:01;;;;;;;15.57;10.57;;;;;;;11.48;60.03;101847.53;4981505;28;20175;-61
2023/04/17 13:12:28;;;;;;;17.58;13.07;;;;;;;11.36;59.87;101849.78;4972416;28;20059;-61
2023/04/17 13:14:56;;;;;;;14.82;11.77;;;;;;;11.30;60.37;101851.81;4969718;28;20087;-61
2023/04/17 13:17:24;;;;;;;21.42;13.75;;;;;;;11.27;60.37;101854.59;4968299;28;20401;-60
2023/04/17 13:19:51;;;;;;;21.90;12.55;;;;;;;11.23;60.65;101855.66;4972540;28;20054;-61
2023/04/17 13:22:19;;;;;;;18.50;12.77;;;;;;;11.15;60.79;101855.97;4966839;28;20054;-60
2023/04/17 13:24:47;;;;;;;20.98;14.00;;;;;;;11.14;61.60;101860.38;4966625;28;20049;-60
2023/04/17 13:27:15;;;;;;;18.90;14.25;;;;;;;11.11;61.63;101857.84;4970015;28;20868;-60
2023/04/17 13:29:43;;;;;;;22.15;17.35;;;;;;;11.09;62.48;101859.72;4960655;28;20081;-61
2023/04/17 13:32:10;;;;;;;19.83;15.48;;;;;;;10.99;62.91;101861.03;4970289;28;20073;-60
2023/04/17 13:34:37;;;;;;;17.48;14.75;;;;;;;10.87;63.76;101861.50;4970601;28;20065;-60
2023/04/17 13:37:06;;;;;;;24.58;14.82;;;;;;;10.82;64.55;101863.47;4977846;28;21062;-61
2023/04/17 13:39:33;;;;;;;21.75;15.48;;;;;;;10.77;64.57;101858.38;4977501;28;20058;-62
2023/04/17 13:42:01;;;;;;;21.25;16.05;;;;;;;10.79;65.26;101867.06;4982071;28;20046;-61
2023/04/17 13:44:28;;;;;;;23.60;17.98;;;;;;;10.78;66.23;101854.84;4975798;28;20055;-61
2023/04/17 13:46:55;;;;;;;22.73;18.58;;;;;;;10.76;66.85;101867.22;4971429;28;20058;-61
2023/04/17 13:49:23;;;;;;;22.05;18.25;;;;;;;10.80;67.03;101860.88;4972906;28;20066;-61
2023/04/17 13:51:50;;;;;;;21.65;17.08;;;;;;;10.80;67.22;101858.25;4975894;28;20054;-61
2023/04/17 13:54:17;;;;;;;27.55;19.42;;;;;;;10.81;67.14;101853.88;4971705;28;20114;-61
2023/04/17 13:56:45;;;;;;;28.77;19.98;;;;;;;10.82;67.50;101858.22;4969629;28;20051;-61
2023/04/17 13:59:12;;;;;;;24.05;17.88;;;;;;;10.78;68.03;101853.97;4974435;28;20110;-61
2023/04/17 14:01:40;;;;;;;24.30;19.35;;;;;;;10.74;68.06;101855.00;4965801;28;20051;-61
2023/04/17 14:04:08;;;;;;;28.88;19.75;;;;;;;10.71;68.35;101855.97;4969791;28;20054;-63
2023/04/17 14:06:35;;;;;;;25.10;19.13;;;;;;;10.67;68.25;101857.03;4968252;28;21538;-60
2023/04/17 14:09:04;;;;;;;27.48;20.73;;;;;;;10.54;69.00;101856.66;4969546;28;20538;-61
2023/04/17 14:11:32;;;;;;;31.02;21.85;;;;;;;10.48;69.42;101854.25;4980557;28;20158;-62
2023/04/17 14:13:59;;;;;;;29.30;23.33;;;;;;;10.44;70.05;101850.03;4969797;28;20047;-62
2023/04/17 14:16:27;;;;;;;26.00;22.35;;;;;;;10.36;70.66;101854.75;4971563;28;20057;-61
2023/04/17 14:18:54;;;;;;;25.42;21.05;;;;;;;10.28;71.21;101852.41;4973278;28;20078;-62
2023/04/17 14:21:26;;;;;;;29.38;22.67;;;;;;;10.22;71.75;101860.50;4979534;28;20062;-60
2023/04/17 14:23:55;;;;;;;30.05;21.48;;;;;;;10.15;72.73;101854.59;4967261;28;20051;-61
2023/04/17 14:26:22;;;;;;;27.17;21.27;;;;;;;10.07;73.58;101854.03;4978696;28;20074;-62
2023/04/17 14:28:50;;;;;;;26.42;21.65;;;;;;;9.89;75.33;101863.44;4980317;28;20050;-61
2023/04/17 14:31:17;;;;;;;28.42;22.20;;;;;;;9.81;76.28;101860.22;4975440;28;20078;-67
2023/04/17 14:33:45;;;;;;;25.40;20.83;;;;;;;9.75;76.37;101862.25;4970759;28;20046;-61
2023/04/17 14:36:13;;;;;;;23.58;20.10;;;;;;;9.68;77.77;101860.72;4974753;28;20112;-61
2023/04/17 14:38:40;;;;;;;26.73;21.33;;;;;;;9.65;78.40;101864.34;4984843;28;20062;-61
2023/04/17 14:41:07;;;;;;;25.60;21.17;;;;;;;9.70;78.75;101866.81;4972480;28;20338;-68
2023/04/17 14:43:35;;;;;;;28.75;21.05;;;;;;;9.66;79.20;101862.56;4968114;28;20727;-66
2023/04/17 14:46:02;;;;;;;28.73;18.73;;;;;;;9.62;79.94;101867.91;4972287;28;20054;-61
2023/04/17 14:48:29;;;;;;;24.25;21.42;;;;;;;9.56;80.83;101865.53;4971680;28;20081;-61
2023/04/17 14:51:00;;;;;;;25.95;19.45;;;;;;;9.49;81.33;101871.03;4969349;28;20082;-57
2023/04/17 14:53:28;;;;;;;23.25;19.02;;;;;;;9.46;81.81;101874.63;4975609;28;20136;-58
2023/04/17 14:55:55;;;;;;;25.17;19.15;;;;;;;9.43;81.99;101866.84;4979511;28;20054;-63
2023/04/17 14:58:22;;;;;;;25.88;18.58;;;;;;;9.47;82.64;101868.47;4982832;28;20074;-65
2023/04/17 15:00:49;;;;;;;25.80;19.27;;;;;;;9.55;83.56;101869.06;4969885;28;20054;-65
2023/04/17 15:03:17;;;;;;;22.58;17.95;;;;;;;9.62;83.27;101870.56;4992775;28;20051;-61
2023/04/17 15:05:45;;;;;;;24.98;18.83;;;;;;;9.64;83.81;101868.75;4974672;28;20069;-66
2023/04/17 15:08:12;;;;;;;26.95;19.13;;;;;;;9.63;84.45;101871.41;4977585;28;20166;-58
2023/04/17 15:10:40;;;;;;;23.30;19.88;;;;;;;9.61;84.98;101871.47;4972122;28;20114;-57
2023/04/17 15:13:17;;;;;;;26.05;19.10;;;;;;;9.56;85.24;101867.28;4980040;28;20633;-64
2023/04/17 15:15:45;;;;;;;22.33;18.33;;;;;;;9.49;85.60;101869.25;4972522;28;20054;-65
2023/04/17 15:18:12;;;;;;;21.90;17.38;;;;;;;9.48;85.51;101867.53;4991134;28;20116;-63
2023/04/17 15:20:39;;;;;;;23.77;17.70;;;;;;;9.40;85.49;101864.31;4969433;28;20090;-62
2023/04/17 15:23:07;;;;;;;25.95;20.48;;;;;;;9.25;86.05;101863.06;4979040;28;20046;-62
2023/04/17 15:25:34;;;;;;;23.90;19.52;;;;;;;9.11;86.03;101868.78;4976854;28;20066;-62
2023/04/17 15:28:01;;;;;;;25.70;19.92;;;;;;;8.98;86.69;101864.00;4981661;28;20676;-59
2023/04/17 15:30:29;;;;;;;28.65;21.23;;;;;;;8.91;87.15;101865.09;4981750;28;20061;-61
2023/04/17 15:32:56;;;;;;;26.60;21.20;;;;;;;8.88;86.85;101871.31;4974441;28;20054;-59
2023/04/17 15:35:23;;;;;;;23.90;18.63;;;;;;;8.84;87.17;101864.44;4984707;28;20149;-64
2023/04/17 15:37:50;;;;;;;21.58;19.05;;;;;;;8.87;88.34;101859.06;4983114;28;20649;-61
2023/04/17 15:40:18;;;;;;;25.13;21.15;;;;;;;8.96;88.15;101865.78;4971668;28;20063;-59
2023/04/17 15:42:45;;;;;;;25.80;20.55;;;;;;;9.11;88.28;101863.53;4985823;28;20070;-61
2023/04/17 15:45:13;;;;;;;24.95;20.75;;;;;;;9.24;88.32;101868.41;4986069;28;20050;-63
2023/04/17 15:47:40;;;;;;;24.02;20.10;;;;;;;9.31;87.47;101867.25;4974166;28;20054;-59
2023/04/17 15:50:08;;;;;;;24.70;18.73;;;;;;;9.36;87.53;101868.81;4984265;28;20096;-64
2023/04/17 15:52:35;;;;;;;22.60;19.55;;;;;;;9.30;87.63;101865.56;4981799;28;20059;-64
2023/04/17 16:02:26;;;;;;;20.17;17.90;;;;;;;9.16;88.17;101875.66;4972946;28;20463;-60
2023/04/17 16:04:53;;;;;;;20.65;18.17;;;;;;;9.11;89.01;101878.44;4970358;28;20168;-62
2023/04/17 16:07:22;;;;;;;20.80;17.10;;;;;;;9.06;89.46;101872.50;4982050;28;20059;-60
2023/04/17 16:09:49;;;;;;;22.85;17.40;;;;;;;9.02;89.48;101874.34;4975765;28;20557;-61
2023/04/17 16:12:17;;;;;;;21.50;15.98;;;;;;;8.95;89.42;101874.59;4972989;28;20602;-61
2023/04/17 16:14:46;;;;;;;19.20;16.00;;;;;;;8.87;89.49;101878.34;4971381;28;20111;-61
2023/04/17 16:17:13;;;;;;;16.42;13.65;;;;;;;8.84;89.96;101880.19;4949707;28;20112;-61
2023/04/17 16:19:40;;;;;;;15.63;13.95;;;;;;;8.79;90.07;101879.47;4973090;28;20049;-61
2023/04/17 16:22:07;;;;;;;18.70;15.18;;;;;;;8.73;89.44;101869.16;4982581;28;21435;-61
2023/04/17 16:24:35;;;;;;;17.20;14.20;;;;;;;8.67;89.30;101870.22;4981593;28;20047;-60
2023/04/17 16:27:02;;;;;;;15.65;13.55;;;;;;;8.62;89.92;101874.75;4978186;28;20047;-60
2023/04/17 16:29:30;;;;;;;14.63;13.20;;;;;;;8.56;90.33;101873.19;4982894;28;20062;-60
2023/04/17 16:31:58;;;;;;;15.70;13.02;;;;;;;8.51;89.93;101871.56;4977656;28;20051;-61
2023/04/17 16:34:27;;;;;;;14.02;12.15;;;;;;;8.44;90.00;101870.06;4982803;28;20491;-61
2023/04/17 16:36:54;;;;;;;14.35;12.85;;;;;;;8.40;90.96;101874.53;4994385;28;20157;-60
2023/04/17 16:39:21;;;;;;;13.90;12.48;;;;;;;8.35;91.13;101869.41;4969558;28;20092;-61
2023/04/17 16:41:51;;;;;;;17.63;14.40;;;;;;;8.32;91.46;101884.34;4974329;28;20062;-61
2023/04/17 16:44:18;;;;;;;17.40;14.68;;;;;;;8.27;91.18;101879.25;4979979;28;20064;-60
2023/04/17 16:46:45;;;;;;;15.40;13.50;;;;;;;8.23;91.66;101882.00;4984840;28;20081;-59
2023/04/17 16:49:35;;;;;;;17.52;14.65;;;;;;;8.23;92.38;101867.13;4998831;28;20058;-61
2023/04/17 16:52:03;;;;;;;18.77;15.00;;;;;;;8.22;92.78;101880.28;4993907;28;20080;-58
2023/04/17 16:54:30;;;;;;;20.83;15.52;;;;;;;8.19;93.44;101875.13;4972794;28;20054;-60
2023/04/17 16:56:58;;;;;;;18.65;15.27;;;;;;;8.13;93.47;101874.41;4970685;28;20070;-61
2023/04/17 16:59:25;;;;;;;17.58;14.80;;;;;;;8.11;93.78;101880.63;5004701;28;20066;-61
2023/04/17 17:01:52;;;;;;;17.13;14.20;;;;;;;8.08;94.13;101889.41;4970069;28;20057;-62
2023/04/17 17:04:20;;;;;;;17.75;15.13;;;;;;;8.06;94.73;101883.38;4973438;28;21508;-59
2023/04/17 17:06:47;;;;;;;17.77;14.95;;;;;;;8.09;94.66;101883.25;4978206;28;20137;-60
2023/04/17 17:09:14;;;;;;;19.25;15.95;;;;;;;8.14;95.26;101877.88;4972339;28;20410;-61
2023/04/17 17:11:42;;;;;;;21.85;16.13;;;;;;;8.17;95.92;101888.28;4984325;28;20568;-61
2023/04/17 17:14:09;;;;;;;18.63;15.18;;;;;;;8.18;96.14;101889.16;4980933;28;20059;-62
2023/04/17 17:16:36;;;;;;;18.80;16.65;;;;;;;8.10;96.24;101887.63;4972293;28;20048;-61
2023/04/17 17:19:04;;;;;;;17.58;15.70;;;;;;;8.08;96.38;101889.41;4976963;28;20483;-62